createdAt,value
2018-03-28T00:00:52.982Z,14.77
2018-03-28T00:03:21.300Z,12.50
2018-03-28T00:05:50.735Z,12.53
2018-03-28T00:08:19.758Z,13.23
2018-03-28T00:10:48.084Z,11.40
2018-03-28T00:13:16.470Z,13.03
2018-03-28T00:15:44.857Z,13.23
2018-03-28T00:18:13.122Z,12.87
2018-03-28T00:20:42.558Z,12.27
2018-03-28T00:23:11.972Z,12.70
2018-03-28T00:25:40.995Z,14.00
2018-03-28T00:28:10.446Z,12.17
2018-03-28T00:30:39.853Z,14.37
2018-03-28T00:33:08.189Z,12.83
2018-03-28T00:35:37.272Z,14.43
2018-03-28T00:38:05.667Z,14.33
2018-03-28T00:40:34.831Z,13.97
2018-03-28T00:43:04.044Z,13.10
2018-03-28T00:45:32.468Z,13.40
2018-03-28T00:48:01.529Z,14.40
2018-03-28T00:50:29.881Z,13.30
2018-03-28T00:52:58.298Z,14.00
2018-03-28T00:55:26.687Z,16.67
2018-03-28T00:57:54.959Z,13.03
2018-03-28T01:00:23.218Z,11.77
2018-03-28T01:02:52.443Z,12.73
2018-03-28T01:05:20.678Z,12.93
2018-03-28T01:07:49.765Z,12.90
2018-03-28T01:10:18.354Z,13.40
2018-03-28T01:12:47.422Z,11.90
2018-03-28T01:15:15.715Z,13.10
2018-03-28T01:17:44.007Z,13.13
2018-03-28T01:20:12.267Z,12.23
2018-03-28T01:22:40.531Z,12.80
2018-03-28T01:25:08.821Z,13.70
2018-03-28T01:27:37.109Z,11.57
2018-03-28T01:30:05.423Z,11.20
2018-03-28T01:32:33.698Z,13.10
2018-03-28T01:35:01.958Z,13.17
2018-03-28T01:37:30.243Z,13.25
2018-03-28T01:39:58.477Z,11.87
2018-03-28T01:42:27.658Z,13.53
2018-03-28T01:44:55.984Z,11.87
2018-03-28T01:47:24.443Z,15.47
2018-03-28T01:49:52.719Z,12.07
2018-03-28T01:52:22.311Z,15.17
2018-03-28T01:54:51.723Z,13.63
2018-03-28T01:57:20.059Z,12.53
2018-03-28T01:59:49.077Z,13.23
2018-03-28T02:02:17.443Z,11.87
2018-03-28T02:04:45.773Z,12.50
2018-03-28T02:07:14.052Z,12.90
2018-03-28T02:09:42.333Z,12.07
2018-03-28T02:12:12.952Z,12.30
2018-03-28T02:14:41.271Z,11.93
2018-03-28T02:17:10.334Z,12.33
2018-03-28T02:19:38.807Z,14.70
2018-03-28T02:22:10.922Z,12.20
2018-03-28T02:24:39.978Z,13.17
2018-03-28T02:27:09.001Z,12.93
2018-03-28T02:29:38.067Z,12.70
2018-03-28T02:32:07.120Z,14.77
2018-03-28T02:34:35.397Z,13.47
2018-03-28T02:37:03.654Z,13.63
2018-03-28T02:39:31.948Z,13.73
2018-03-28T02:42:00.251Z,16.37
2018-03-28T02:44:28.634Z,13.23
2018-03-28T02:46:57.770Z,13.47
2018-03-28T02:49:26.056Z,14.33
2018-03-28T02:51:55.524Z,13.70
2018-03-28T02:54:23.878Z,13.60
2018-03-28T02:56:52.154Z,13.97
2018-03-28T02:59:21.652Z,16.90
2018-03-28T03:01:50.742Z,14.98
2018-03-28T03:04:19.013Z,13.77
2018-03-28T03:06:47.286Z,13.20
2018-03-28T03:09:15.575Z,14.13
2018-03-28T03:11:43.964Z,14.17
2018-03-28T03:14:12.278Z,14.55
2018-03-28T03:16:41.359Z,15.83
2018-03-28T03:19:09.612Z,14.57
2018-03-28T03:21:37.957Z,13.38
2018-03-28T03:24:06.232Z,12.80
2018-03-28T03:26:34.486Z,14.13
2018-03-28T03:29:04.392Z,13.80
2018-03-28T03:31:32.700Z,14.17
2018-03-28T03:34:00.972Z,13.90
2018-03-28T03:36:29.277Z,14.83
2018-03-28T03:38:57.538Z,14.33
2018-03-28T03:41:27.008Z,15.47
2018-03-28T03:43:55.436Z,14.97
2018-03-28T03:46:23.712Z,14.87
2018-03-28T03:48:54.939Z,15.30
2018-03-28T03:51:23.233Z,15.50
2018-03-28T03:53:51.538Z,15.43
2018-03-28T03:56:19.886Z,14.82
2018-03-28T03:58:50.044Z,17.00
2018-03-28T04:01:19.498Z,16.57
2018-03-28T04:03:47.867Z,18.63
2018-03-28T04:06:16.130Z,16.63
2018-03-28T04:08:44.384Z,15.63
2018-03-28T04:11:13.440Z,16.27
2018-03-28T04:13:41.731Z,17.00
2018-03-28T04:16:10.092Z,17.07
2018-03-28T04:18:38.333Z,16.83
2018-03-28T04:21:06.666Z,17.73
2018-03-28T04:23:34.969Z,17.37
2018-03-28T04:26:03.248Z,17.70
2018-03-28T04:28:32.297Z,18.60
2018-03-28T04:31:00.610Z,17.63
2018-03-28T04:33:28.945Z,18.37
2018-03-28T04:35:58.997Z,18.53
2018-03-28T04:38:28.042Z,17.97
2018-03-28T04:40:56.377Z,18.60
2018-03-28T04:43:25.420Z,20.27
2018-03-28T04:45:53.674Z,21.00
2018-03-28T04:48:21.970Z,20.80
2018-03-28T04:50:50.267Z,20.50
2018-03-28T04:53:18.565Z,19.23
2018-03-28T04:55:47.614Z,23.20
2018-03-28T04:58:16.774Z,19.83
2018-03-28T05:00:45.926Z,20.80
2018-03-28T05:03:15.410Z,19.40
2018-03-28T05:05:45.227Z,23.20
2018-03-28T05:08:13.534Z,21.90
2018-03-28T05:10:41.809Z,24.03
2018-03-28T05:13:10.068Z,24.80
2018-03-28T05:15:38.375Z,24.47
2018-03-28T05:18:06.659Z,25.57
2018-03-28T05:20:35.702Z,26.20
2018-03-28T05:23:03.963Z,22.63
2018-03-28T05:25:32.230Z,28.33
2018-03-28T05:28:00.573Z,26.50
2018-03-28T05:30:29.681Z,26.03
2018-03-28T05:32:59.483Z,28.60
2018-03-28T05:35:28.631Z,26.67
2018-03-28T05:37:56.909Z,25.07
2018-03-28T05:40:25.172Z,26.83
2018-03-28T05:42:53.453Z,30.03
2018-03-28T05:45:22.504Z,24.90
2018-03-28T05:47:52.344Z,27.13
2018-03-28T05:50:20.650Z,26.47
2018-03-28T05:52:48.944Z,27.00
2018-03-28T05:55:17.335Z,25.00
2018-03-28T05:57:45.591Z,29.13
2018-03-28T06:00:13.830Z,28.13
2018-03-28T06:02:42.107Z,26.50
2018-03-28T06:05:10.380Z,26.33
2018-03-28T06:07:38.635Z,26.43
2018-03-28T06:10:07.708Z,24.00
2018-03-28T06:12:35.992Z,29.53
2018-03-28T06:15:05.437Z,24.80
2018-03-28T06:17:38.027Z,24.40
2018-03-28T06:20:06.295Z,23.53
2018-03-28T06:22:34.563Z,22.50
2018-03-28T06:25:02.815Z,24.87
2018-03-28T06:27:31.855Z,26.80
2018-03-28T06:30:00.997Z,23.17
2018-03-28T06:32:30.566Z,23.67
2018-03-28T06:34:59.757Z,22.67
2018-03-28T06:37:28.102Z,23.50
2018-03-28T06:39:56.448Z,25.50
2018-03-28T06:42:24.682Z,23.97
2018-03-28T06:44:53.511Z,22.53
2018-03-28T06:47:22.593Z,20.13
2018-03-28T06:49:50.813Z,22.87
2018-03-28T06:52:19.120Z,20.93
2018-03-28T06:54:48.199Z,22.47
2018-03-28T06:57:16.458Z,22.15
2018-03-28T06:59:44.750Z,23.07
2018-03-28T07:02:13.044Z,24.10
2018-03-28T07:04:42.175Z,23.50
2018-03-28T07:07:12.133Z,23.33
2018-03-28T07:09:40.373Z,22.27
2018-03-28T07:12:09.444Z,23.80
2018-03-28T07:14:37.769Z,23.57
2018-03-28T07:17:06.115Z,22.83
2018-03-28T07:19:34.379Z,24.87
2018-03-28T07:22:02.676Z,22.13
2018-03-28T07:24:31.679Z,24.73
2018-03-28T07:27:01.090Z,21.00
2018-03-28T07:29:30.086Z,22.63
2018-03-28T07:31:58.456Z,22.77
2018-03-28T07:34:26.701Z,22.97
2018-03-28T07:36:55.796Z,21.77
2018-03-28T07:39:24.094Z,21.83
2018-03-28T07:41:53.214Z,22.33
2018-03-28T07:44:21.443Z,24.63
2018-03-28T07:46:49.708Z,20.27
2018-03-28T07:49:18.035Z,21.10
2018-03-28T07:51:47.035Z,21.77
2018-03-28T07:54:15.381Z,22.80
2018-03-28T07:56:43.662Z,18.77
2018-03-28T07:59:11.961Z,21.90
2018-03-28T08:01:40.218Z,18.30
2018-03-28T08:04:09.262Z,20.80
2018-03-28T08:06:37.523Z,20.77
2018-03-28T08:09:05.835Z,19.13
2018-03-28T08:11:36.392Z,17.03
2018-03-28T08:14:04.647Z,17.80
2018-03-28T08:16:32.906Z,17.67
2018-03-28T08:19:01.181Z,18.27
2018-03-28T08:21:29.510Z,16.00
2018-03-28T08:23:57.831Z,16.70
2018-03-28T08:26:26.109Z,19.43
2018-03-28T08:28:54.381Z,17.53
2018-03-28T08:31:22.693Z,16.77
2018-03-28T08:33:51.706Z,17.57
2018-03-28T08:36:19.995Z,16.23
2018-03-28T08:38:48.344Z,17.25
2018-03-28T08:41:16.606Z,18.40
2018-03-28T08:43:46.695Z,18.07
2018-03-28T08:46:15.075Z,18.70
2018-03-28T08:48:43.387Z,18.17
2018-03-28T08:51:12.499Z,18.80
2018-03-28T08:53:41.610Z,18.43
2018-03-28T08:56:09.844Z,20.17
2018-03-28T08:58:38.136Z,19.17
2018-03-28T09:01:08.155Z,19.13
2018-03-28T09:03:37.211Z,20.00
2018-03-28T09:06:05.487Z,20.40
2018-03-28T09:08:33.803Z,18.27
2018-03-28T09:11:06.556Z,16.60
2018-03-28T09:13:34.802Z,18.27
2018-03-28T09:16:03.139Z,18.03
2018-03-28T09:18:32.248Z,17.30
2018-03-28T09:21:00.566Z,17.73
2018-03-28T09:23:28.861Z,16.80
2018-03-28T09:25:57.103Z,16.83
2018-03-28T09:28:26.493Z,17.70
2018-03-28T09:30:54.754Z,17.20
2018-03-28T09:33:23.028Z,15.77
2018-03-28T09:35:51.369Z,17.07
2018-03-28T09:38:19.640Z,18.83
2018-03-28T09:40:48.033Z,16.50
2018-03-28T09:43:16.339Z,18.17
2018-03-28T09:45:45.407Z,17.60
2018-03-28T09:48:15.253Z,17.20
2018-03-28T09:50:44.281Z,16.87
2018-03-28T09:53:12.546Z,16.33
2018-03-28T09:55:40.832Z,16.30
2018-03-28T09:58:10.304Z,16.07
2018-03-28T10:00:40.367Z,17.05
2018-03-28T10:03:12.510Z,14.77
2018-03-28T10:05:40.898Z,15.27
2018-03-28T10:08:09.204Z,15.80
2018-03-28T10:10:37.489Z,16.08
2018-03-28T10:13:06.523Z,15.93
2018-03-28T10:15:34.774Z,15.27
2018-03-28T10:18:03.072Z,13.40
2018-03-28T10:20:31.400Z,12.13
2018-03-28T10:22:59.675Z,14.83
2018-03-28T10:25:27.952Z,12.87
2018-03-28T10:27:56.999Z,13.33
2018-03-28T10:30:25.282Z,13.50
2018-03-28T10:32:53.619Z,12.77
2018-03-28T10:35:22.686Z,13.77
2018-03-28T10:37:50.985Z,12.37
2018-03-28T10:40:20.052Z,11.87
2018-03-28T10:42:48.389Z,13.40
2018-03-28T10:45:16.758Z,12.70
2018-03-28T10:47:45.856Z,12.17
2018-03-28T10:50:14.104Z,13.07
2018-03-28T10:52:43.134Z,13.03
2018-03-28T10:55:11.439Z,12.53
2018-03-28T10:57:39.679Z,12.70
2018-03-28T11:00:08.053Z,12.30
2018-03-28T11:02:37.572Z,12.23
2018-03-28T11:05:05.835Z,13.97
2018-03-28T11:07:34.121Z,12.70
2018-03-28T11:10:02.438Z,13.03
2018-03-28T11:12:30.715Z,13.10
2018-03-28T11:15:02.685Z,12.83
2018-03-28T11:17:30.961Z,12.73
2018-03-28T11:20:00.760Z,12.97
2018-03-28T11:22:29.804Z,13.13
2018-03-28T11:24:58.852Z,13.20
2018-03-28T11:27:27.182Z,13.93
2018-03-28T11:29:55.497Z,15.47
2018-03-28T11:32:23.773Z,16.93
2018-03-28T11:34:52.022Z,16.27
2018-03-28T11:37:20.320Z,17.00
2018-03-28T11:39:48.570Z,16.27
2018-03-28T11:42:17.637Z,14.97
2018-03-28T11:44:47.819Z,16.50
2018-03-28T11:47:16.091Z,15.87
2018-03-28T11:49:44.386Z,15.60
2018-03-28T11:52:13.409Z,18.13
2018-03-28T11:54:41.718Z,16.20
2018-03-28T11:57:10.032Z,15.33
2018-03-28T11:59:38.347Z,16.47
2018-03-28T12:02:07.477Z,16.37
2018-03-28T12:04:35.852Z,17.87
2018-03-28T12:07:05.699Z,17.20
2018-03-28T12:09:33.954Z,19.20
2018-03-28T12:12:02.258Z,20.03
2018-03-28T12:14:30.617Z,16.83
2018-03-28T12:16:58.937Z,17.03
2018-03-28T12:19:27.953Z,18.53
2018-03-28T12:21:56.195Z,16.73
2018-03-28T12:24:25.243Z,17.13
2018-03-28T12:26:53.671Z,17.33
2018-03-28T12:29:21.918Z,21.63
2018-03-28T12:31:50.227Z,19.20
2018-03-28T12:34:20.062Z,18.97
2018-03-28T12:36:48.321Z,18.93
2018-03-28T12:39:17.389Z,22.17
2018-03-28T12:41:45.662Z,19.23
2018-03-28T12:44:14.035Z,20.23
2018-03-28T12:46:43.146Z,20.70
2018-03-28T12:49:11.465Z,20.97
2018-03-28T12:51:41.355Z,20.15
2018-03-28T12:54:11.274Z,20.03
2018-03-28T12:56:40.871Z,19.47
2018-03-28T12:59:09.220Z,22.03
2018-03-28T13:01:38.243Z,19.27
2018-03-28T13:04:07.260Z,20.10
2018-03-28T13:06:35.519Z,18.30
2018-03-28T13:09:03.883Z,24.98
2018-03-28T13:11:32.970Z,20.33
2018-03-28T13:14:01.339Z,19.95
2018-03-28T13:16:29.719Z,20.47
2018-03-28T13:18:59.524Z,20.47
2018-03-28T13:21:27.803Z,22.33
2018-03-28T13:23:56.076Z,18.67
2018-03-28T13:26:24.358Z,22.98
2018-03-28T13:28:52.706Z,20.53
2018-03-28T13:31:21.024Z,24.97
2018-03-28T13:33:49.858Z,21.10
2018-03-28T13:36:18.114Z,24.12
2018-03-28T13:38:47.372Z,22.97
2018-03-28T13:41:15.606Z,21.98
2018-03-28T13:43:43.886Z,21.37
2018-03-28T13:46:12.262Z,23.60
2018-03-28T13:48:40.755Z,21.37
2018-03-28T13:51:08.999Z,23.63
2018-03-28T13:53:38.194Z,24.20
2018-03-28T13:56:09.324Z,25.23
2018-03-28T13:58:37.621Z,25.40
2018-03-28T14:01:05.974Z,25.87
2018-03-28T14:03:35.942Z,27.93
2018-03-28T14:06:04.313Z,25.63
2018-03-28T14:08:32.587Z,28.40
2018-03-28T14:11:00.890Z,28.43
2018-03-28T14:13:29.210Z,25.33
2018-03-28T14:15:58.248Z,25.57
2018-03-28T14:18:27.659Z,28.53
2018-03-28T14:20:57.382Z,24.70
2018-03-28T14:23:25.628Z,28.07
2018-03-28T14:25:53.932Z,25.00
2018-03-28T14:28:22.988Z,28.03
2018-03-28T14:30:51.315Z,28.27
2018-03-28T14:33:19.579Z,27.10
2018-03-28T14:35:47.898Z,26.47
2018-03-28T14:38:16.961Z,26.43
2018-03-28T14:40:45.440Z,24.97
2018-03-28T14:43:14.013Z,24.30
2018-03-28T14:45:42.300Z,24.33
2018-03-28T14:48:11.712Z,24.50
2018-03-28T14:50:40.011Z,27.70
2018-03-28T14:53:09.029Z,23.63
2018-03-28T14:55:37.297Z,26.57
2018-03-28T14:58:06.588Z,26.90
2018-03-28T15:00:34.884Z,25.43
2018-03-28T15:03:03.127Z,24.60
2018-03-28T15:05:31.421Z,24.30
2018-03-28T15:07:59.702Z,25.23
2018-03-28T15:10:27.989Z,26.77
2018-03-28T15:12:57.062Z,21.63
2018-03-28T15:15:26.091Z,23.77
2018-03-28T15:17:54.355Z,24.80
2018-03-28T15:20:22.674Z,22.10
2018-03-28T15:22:52.088Z,26.17
2018-03-28T15:25:20.342Z,27.63
2018-03-28T15:27:49.866Z,26.87
2018-03-28T15:30:18.131Z,30.23
2018-03-28T15:32:46.396Z,30.80
2018-03-28T15:35:15.901Z,29.50
2018-03-28T15:37:44.182Z,26.80
2018-03-28T15:40:14.054Z,30.43
2018-03-28T15:42:42.505Z,25.50
2018-03-28T15:45:11.596Z,25.30
2018-03-28T15:47:40.676Z,29.17
2018-03-28T15:50:09.764Z,28.33
2018-03-28T15:52:38.114Z,28.63
2018-03-28T15:55:06.369Z,30.00
2018-03-28T15:57:34.697Z,30.27
2018-03-28T16:00:03.022Z,28.43
2018-03-28T16:02:31.308Z,32.20
2018-03-28T16:04:59.585Z,31.90
2018-03-28T16:07:27.861Z,28.63
2018-03-28T16:09:56.949Z,34.17
2018-03-28T16:12:25.235Z,32.83
2018-03-28T16:14:53.545Z,34.00
2018-03-28T16:17:21.832Z,32.87
2018-03-28T16:19:51.635Z,34.97
2018-03-28T16:22:20.122Z,31.83
2018-03-28T16:24:48.395Z,36.33
2018-03-28T16:27:16.665Z,37.53
2018-03-28T16:29:45.024Z,37.42
2018-03-28T16:32:13.418Z,36.27
2018-03-28T16:34:41.685Z,37.37
2018-03-28T16:37:09.974Z,36.00
2018-03-28T16:39:38.370Z,38.90
2018-03-28T16:42:07.447Z,39.73
2018-03-28T16:44:35.871Z,41.50
2018-03-28T16:47:04.944Z,38.30
2018-03-28T16:49:33.990Z,42.93
2018-03-28T16:52:03.907Z,39.65
2018-03-28T16:54:32.214Z,42.47
2018-03-28T16:57:00.487Z,39.47
2018-03-28T16:59:28.786Z,41.77
2018-03-28T17:01:57.812Z,41.27
2018-03-28T17:04:26.270Z,45.53
2018-03-28T17:06:55.629Z,44.13
2018-03-28T17:09:23.921Z,47.63
2018-03-28T17:11:53.419Z,45.87
2018-03-28T17:14:22.458Z,45.22
2018-03-28T17:16:50.725Z,44.90
2018-03-28T17:19:19.039Z,47.17
2018-03-28T17:21:47.363Z,51.63
2018-03-28T17:24:16.549Z,46.33
2018-03-28T17:26:44.864Z,46.87
2018-03-28T17:29:13.179Z,48.47
2018-03-28T17:31:42.224Z,43.93
2018-03-28T17:34:11.220Z,47.67
2018-03-28T17:36:39.543Z,45.10
2018-03-28T17:39:07.818Z,47.60
2018-03-28T17:41:36.160Z,43.67
2018-03-28T17:44:05.195Z,51.57
2018-03-28T17:46:33.453Z,45.43
2018-03-28T17:49:01.747Z,50.97
2018-03-28T17:51:30.966Z,49.07
2018-03-28T17:54:02.044Z,47.73
2018-03-28T17:56:31.110Z,48.47
2018-03-28T17:59:00.202Z,50.30
2018-03-28T18:01:28.496Z,49.43
2018-03-28T18:03:56.854Z,50.70
2018-03-28T18:06:25.115Z,44.97
2018-03-28T18:08:54.961Z,47.57
2018-03-28T18:11:24.048Z,45.83
2018-03-28T18:13:53.854Z,49.57
2018-03-28T18:16:23.031Z,51.47
2018-03-28T18:18:51.308Z,49.87
2018-03-28T18:21:19.602Z,45.47
2018-03-28T18:23:47.892Z,46.88
2018-03-28T18:26:20.035Z,49.10
2018-03-28T18:28:49.131Z,52.60
2018-03-28T18:31:17.523Z,45.80
2018-03-28T18:33:45.877Z,47.27
2018-03-28T18:36:14.140Z,42.07
2018-03-28T18:38:43.160Z,46.90
2018-03-28T18:41:11.479Z,46.57
2018-03-28T18:43:39.767Z,48.77
2018-03-28T18:46:08.157Z,46.30
2018-03-28T18:48:36.463Z,47.77
2018-03-28T18:51:04.744Z,49.53
2018-03-28T18:53:33.885Z,49.17
2018-03-28T18:56:02.453Z,49.47
2018-03-28T18:58:30.811Z,47.90
2018-03-28T19:00:59.865Z,53.35
2018-03-28T19:03:30.031Z,50.70
2018-03-28T19:05:59.102Z,49.17
2018-03-28T19:08:27.653Z,47.00
2018-03-28T19:10:55.952Z,47.63
2018-03-28T19:13:24.442Z,49.13
2018-03-28T19:15:52.765Z,49.60
2018-03-28T19:18:21.099Z,48.23
2018-03-28T19:20:49.397Z,42.03
2018-03-28T19:23:18.484Z,42.20
2018-03-28T19:25:47.510Z,41.78
2018-03-28T19:28:16.384Z,39.17
2018-03-28T19:30:46.381Z,39.13
2018-03-28T19:33:15.528Z,40.37
2018-03-28T19:35:43.804Z,40.67
2018-03-28T19:38:12.107Z,39.87
2018-03-28T19:40:40.427Z,36.53
2018-03-28T19:43:09.502Z,41.17
2018-03-28T19:45:37.768Z,40.10
2018-03-28T19:48:06.086Z,39.77
2018-03-28T19:50:34.367Z,42.57
2018-03-28T19:53:02.750Z,44.47
2018-03-28T19:55:31.759Z,39.60
2018-03-28T19:58:00.125Z,44.57
2018-03-28T20:00:28.453Z,40.17
2018-03-28T20:02:58.578Z,40.58
2018-03-28T20:05:27.404Z,43.90
2018-03-28T20:07:55.702Z,46.50
2018-03-28T20:10:23.995Z,45.67
2018-03-28T20:12:52.344Z,44.10
2018-03-28T20:15:22.060Z,44.80
2018-03-28T20:17:50.572Z,47.50
2018-03-28T20:20:20.583Z,42.60
2018-03-28T20:22:49.722Z,46.27
2018-03-28T20:25:18.771Z,38.30
2018-03-28T20:27:47.065Z,44.83
2018-03-28T20:30:15.340Z,46.87
2018-03-28T20:32:46.281Z,47.77
2018-03-28T20:35:14.551Z,49.17
2018-03-28T20:37:42.863Z,47.27
2018-03-28T20:40:11.180Z,45.23
2018-03-28T20:42:39.468Z,46.73
2018-03-28T20:45:07.749Z,45.50
2018-03-28T20:47:36.027Z,44.17
2018-03-28T20:50:05.211Z,47.07
2018-03-28T20:52:33.530Z,42.40
2018-03-28T20:55:02.583Z,41.93
2018-03-28T20:57:30.873Z,41.23
2018-03-28T20:59:59.132Z,44.30
2018-03-28T21:02:27.421Z,43.10
2018-03-28T21:04:56.244Z,43.03
2018-03-28T21:07:25.310Z,39.80
2018-03-28T21:09:53.629Z,40.43
2018-03-28T21:12:21.923Z,39.47
2018-03-28T21:14:50.209Z,40.43
2018-03-28T21:17:18.504Z,40.87
2018-03-28T21:19:46.796Z,39.80
2018-03-28T21:22:15.078Z,41.90
2018-03-28T21:24:43.367Z,43.70
2018-03-28T21:27:12.409Z,40.83
2018-03-28T21:29:40.677Z,44.97
2018-03-28T21:32:08.970Z,40.40
2018-03-28T21:34:37.261Z,38.87
2018-03-28T21:37:05.531Z,38.30
2018-03-28T21:39:33.817Z,43.37
2018-03-28T21:42:02.093Z,37.17
2018-03-28T21:44:31.135Z,41.90
2018-03-28T21:46:59.437Z,36.00
2018-03-28T21:49:27.841Z,39.17
2018-03-28T21:51:56.123Z,40.43
2018-03-28T21:54:24.369Z,38.30
2018-03-28T21:56:52.605Z,44.73
2018-03-28T21:59:20.954Z,45.10
2018-03-28T22:01:49.197Z,41.65
2018-03-28T22:04:18.132Z,46.40
2018-03-28T22:06:46.387Z,40.07
2018-03-28T22:09:14.616Z,42.33
2018-03-28T22:11:42.873Z,39.73
2018-03-28T22:14:11.268Z,42.73
2018-03-28T22:16:39.536Z,37.07
2018-03-28T22:19:07.859Z,41.53
2018-03-28T22:21:38.174Z,38.40
2018-03-28T22:24:06.430Z,40.17
2018-03-28T22:26:34.695Z,39.53
2018-03-28T22:29:04.160Z,39.45
2018-03-28T22:31:32.531Z,44.83
2018-03-28T22:34:00.828Z,40.97
2018-03-28T22:36:29.930Z,39.70
2018-03-28T22:38:59.199Z,43.50
2018-03-28T22:41:27.499Z,41.07
2018-03-28T22:43:56.546Z,43.97
2018-03-28T22:46:24.826Z,41.20
2018-03-28T22:48:53.092Z,39.10
2018-03-28T22:51:21.334Z,44.47
2018-03-28T22:53:49.619Z,38.67
2018-03-28T22:56:17.950Z,40.60
2018-03-28T22:58:46.354Z,41.90
2018-03-28T23:01:15.428Z,44.83
2018-03-28T23:03:43.757Z,45.60
2018-03-28T23:06:12.001Z,44.50
2018-03-28T23:08:40.322Z,43.17
2018-03-28T23:11:09.517Z,38.70
2018-03-28T23:13:37.760Z,41.33
2018-03-28T23:16:06.085Z,45.90
2018-03-28T23:18:34.353Z,44.97
2018-03-28T23:21:03.440Z,40.53
2018-03-28T23:23:31.649Z,42.00
2018-03-28T23:25:59.965Z,41.20
2018-03-28T23:28:28.229Z,39.53
2018-03-28T23:30:57.266Z,36.43
2018-03-28T23:33:25.539Z,37.20
2018-03-28T23:35:53.809Z,40.77
2018-03-28T23:38:23.212Z,41.70
2018-03-28T23:40:51.489Z,42.40
2018-03-28T23:43:19.728Z,38.73
2018-03-28T23:45:48.055Z,45.23
2018-03-28T23:48:17.243Z,39.60
2018-03-28T23:50:45.533Z,37.83
2018-03-28T23:53:13.902Z,41.70
2018-03-28T23:55:42.191Z,36.60
2018-03-28T23:58:10.563Z,37.67
